sensor_id;sensor_type;location;lat;lon;timestamp;temperature;humidity
67942;SHT31;54731;42.600;23.476;2024-03-02T00:00:41;6.81;82.80
67942;SHT31;54731;42.600;23.476;2024-03-02T00:03:07;6.79;82.64
67942;SHT31;54731;42.600;23.476;2024-03-02T00:05:32;6.81;82.34
67942;SHT31;54731;42.600;23.476;2024-03-02T00:07:58;6.75;82.51
67942;SHT31;54731;42.600;23.476;2024-03-02T00:10:30;6.72;82.57
67942;SHT31;54731;42.600;23.476;2024-03-02T00:13:00;6.72;82.69
67942;SHT31;54731;42.600;23.476;2024-03-02T00:15:47;6.73;82.39
67942;SHT31;54731;42.600;23.476;2024-03-02T00:18:18;6.64;82.77
67942;SHT31;54731;42.600;23.476;2024-03-02T00:20:43;6.73;82.61
67942;SHT31;54731;42.600;23.476;2024-03-02T00:23:10;6.75;82.40
67942;SHT31;54731;42.600;23.476;2024-03-02T00:25:39;6.71;82.32
67942;SHT31;54731;42.600;23.476;2024-03-02T00:28:05;6.65;82.71
67942;SHT31;54731;42.600;23.476;2024-03-02T00:33:14;6.62;82.78
67942;SHT31;54731;42.600;23.476;2024-03-02T00:35:39;6.67;82.69
67942;SHT31;54731;42.600;23.476;2024-03-02T00:38:05;6.67;82.73
67942;SHT31;54731;42.600;23.476;2024-03-02T00:40:31;6.75;82.51
67942;SHT31;54731;42.600;23.476;2024-03-02T00:42:56;6.61;82.75
67942;SHT31;54731;42.600;23.476;2024-03-02T00:45:22;6.55;83.29
67942;SHT31;54731;42.600;23.476;2024-03-02T00:47:47;6.61;83.27
67942;SHT31;54731;42.600;23.476;2024-03-02T00:50:13;6.52;83.21
67942;SHT31;54731;42.600;23.476;2024-03-02T00:52:38;6.53;83.07
67942;SHT31;54731;42.600;23.476;2024-03-02T00:55:04;6.52;83.04
67942;SHT31;54731;42.600;23.476;2024-03-02T00:57:31;6.62;82.89
67942;SHT31;54731;42.600;23.476;2024-03-02T00:59:58;6.67;82.70
67942;SHT31;54731;42.600;23.476;2024-03-02T01:02:23;6.65;82.47
67942;SHT31;54731;42.600;23.476;2024-03-02T01:04:48;6.67;82.50
67942;SHT31;54731;42.600;23.476;2024-03-02T01:07:14;6.61;82.47
67942;SHT31;54731;42.600;23.476;2024-03-02T01:09:39;6.68;82.39
67942;SHT31;54731;42.600;23.476;2024-03-02T01:12:04;6.72;82.18
67942;SHT31;54731;42.600;23.476;2024-03-02T01:14:30;6.62;82.42
67942;SHT31;54731;42.600;23.476;2024-03-02T01:16:55;6.56;83.00
67942;SHT31;54731;42.600;23.476;2024-03-02T01:19:20;6.42;83.83
67942;SHT31;54731;42.600;23.476;2024-03-02T01:21:46;6.45;83.78
67942;SHT31;54731;42.600;23.476;2024-03-02T01:24:11;6.53;83.75
67942;SHT31;54731;42.600;23.476;2024-03-02T01:26:36;6.49;83.94
67942;SHT31;54731;42.600;23.476;2024-03-02T01:29:01;6.49;84.05
67942;SHT31;54731;42.600;23.476;2024-03-02T01:31:27;6.55;83.81
67942;SHT31;54731;42.600;23.476;2024-03-02T01:33:52;6.59;83.72
67942;SHT31;54731;42.600;23.476;2024-03-02T01:36:17;6.67;83.71
67942;SHT31;54731;42.600;23.476;2024-03-02T01:38:43;6.71;83.59
67942;SHT31;54731;42.600;23.476;2024-03-02T01:41:08;6.72;83.56
67942;SHT31;54731;42.600;23.476;2024-03-02T01:43:33;6.76;83.39
67942;SHT31;54731;42.600;23.476;2024-03-02T01:45:59;6.76;83.21
67942;SHT31;54731;42.600;23.476;2024-03-02T01:48:24;6.69;83.60
67942;SHT31;54731;42.600;23.476;2024-03-02T01:50:49;6.72;83.72
67942;SHT31;54731;42.600;23.476;2024-03-02T01:53:15;6.78;83.57
67942;SHT31;54731;42.600;23.476;2024-03-02T01:55:40;6.82;83.50
67942;SHT31;54731;42.600;23.476;2024-03-02T01:58:06;6.86;83.45
67942;SHT31;54731;42.600;23.476;2024-03-02T02:00:31;6.88;83.43
67942;SHT31;54731;42.600;23.476;2024-03-02T02:02:56;6.85;83.44
67942;SHT31;54731;42.600;23.476;2024-03-02T02:05:22;6.88;83.40
67942;SHT31;54731;42.600;23.476;2024-03-02T02:07:47;6.95;83.40
67942;SHT31;54731;42.600;23.476;2024-03-02T02:10:13;6.97;83.30
67942;SHT31;54731;42.600;23.476;2024-03-02T02:12:38;6.95;83.14
67942;SHT31;54731;42.600;23.476;2024-03-02T02:15:28;6.96;82.87
67942;SHT31;54731;42.600;23.476;2024-03-02T02:17:54;6.93;82.89
67942;SHT31;54731;42.600;23.476;2024-03-02T02:20:19;6.96;82.92
67942;SHT31;54731;42.600;23.476;2024-03-02T02:22:58;7.05;82.98
67942;SHT31;54731;42.600;23.476;2024-03-02T02:25:24;6.83;83.80
67942;SHT31;54731;42.600;23.476;2024-03-02T02:27:50;6.79;84.02
67942;SHT31;54731;42.600;23.476;2024-03-02T02:30:22;6.79;83.72
67942;SHT31;54731;42.600;23.476;2024-03-02T02:32:48;6.78;83.86
67942;SHT31;54731;42.600;23.476;2024-03-02T02:35:13;6.81;83.80
67942;SHT31;54731;42.600;23.476;2024-03-02T02:37:38;6.85;83.71
67942;SHT31;54731;42.600;23.476;2024-03-02T02:40:04;6.86;83.62
67942;SHT31;54731;42.600;23.476;2024-03-02T02:42:30;6.78;83.90
67942;SHT31;54731;42.600;23.476;2024-03-02T02:44:55;6.81;83.84
67942;SHT31;54731;42.600;23.476;2024-03-02T02:47:21;6.73;83.88
67942;SHT31;54731;42.600;23.476;2024-03-02T02:49:46;6.53;84.25
67942;SHT31;54731;42.600;23.476;2024-03-02T02:52:11;6.59;84.26
67942;SHT31;54731;42.600;23.476;2024-03-02T02:54:37;6.64;84.14
67942;SHT31;54731;42.600;23.476;2024-03-02T02:57:03;6.64;83.94
67942;SHT31;54731;42.600;23.476;2024-03-02T02:59:28;6.67;83.87
67942;SHT31;54731;42.600;23.476;2024-03-02T03:01:53;6.62;84.02
67942;SHT31;54731;42.600;23.476;2024-03-02T03:04:18;6.65;83.91
67942;SHT31;54731;42.600;23.476;2024-03-02T03:06:44;6.75;83.74
67942;SHT31;54731;42.600;23.476;2024-03-02T03:09:09;6.81;83.05
67942;SHT31;54731;42.600;23.476;2024-03-02T03:11:34;6.82;82.97
67942;SHT31;54731;42.600;23.476;2024-03-02T03:14:00;6.83;82.83
67942;SHT31;54731;42.600;23.476;2024-03-02T03:16:25;6.69;83.03
67942;SHT31;54731;42.600;23.476;2024-03-02T03:18:50;6.81;83.11
67942;SHT31;54731;42.600;23.476;2024-03-02T03:21:16;6.85;83.21
67942;SHT31;54731;42.600;23.476;2024-03-02T03:23:41;6.76;83.28
67942;SHT31;54731;42.600;23.476;2024-03-02T03:26:06;6.72;83.35
67942;SHT31;54731;42.600;23.476;2024-03-02T03:28:32;6.68;83.56
67942;SHT31;54731;42.600;23.476;2024-03-02T03:30:57;6.72;83.63
67942;SHT31;54731;42.600;23.476;2024-03-02T03:33:22;6.78;83.58
67942;SHT31;54731;42.600;23.476;2024-03-02T03:35:47;6.76;83.53
67942;SHT31;54731;42.600;23.476;2024-03-02T03:38:13;6.81;83.48
67942;SHT31;54731;42.600;23.476;2024-03-02T03:40:38;6.85;83.28
67942;SHT31;54731;42.600;23.476;2024-03-02T03:43:03;6.86;83.11
67942;SHT31;54731;42.600;23.476;2024-03-02T03:45:29;6.88;82.67
67942;SHT31;54731;42.600;23.476;2024-03-02T03:47:54;6.81;82.92
67942;SHT31;54731;42.600;23.476;2024-03-02T03:50:19;6.73;83.09
67942;SHT31;54731;42.600;23.476;2024-03-02T03:52:44;6.68;83.40
67942;SHT31;54731;42.600;23.476;2024-03-02T03:55:10;6.72;83.51
67942;SHT31;54731;42.600;23.476;2024-03-02T03:57:35;6.61;83.77
67942;SHT31;54731;42.600;23.476;2024-03-02T04:00:00;6.56;83.98
67942;SHT31;54731;42.600;23.476;2024-03-02T04:02:26;6.55;84.06
67942;SHT31;54731;42.600;23.476;2024-03-02T04:04:51;6.67;84.10
67942;SHT31;54731;42.600;23.476;2024-03-02T04:07:16;6.71;83.91
67942;SHT31;54731;42.600;23.476;2024-03-02T04:09:42;6.61;83.84
67942;SHT31;54731;42.600;23.476;2024-03-02T04:12:07;6.65;84.00
67942;SHT31;54731;42.600;23.476;2024-03-02T04:14:32;6.69;83.97
67942;SHT31;54731;42.600;23.476;2024-03-02T04:16:57;6.67;84.04
67942;SHT31;54731;42.600;23.476;2024-03-02T04:19:23;6.71;84.01
67942;SHT31;54731;42.600;23.476;2024-03-02T04:21:48;6.72;83.81
67942;SHT31;54731;42.600;23.476;2024-03-02T04:24:13;6.73;83.77
67942;SHT31;54731;42.600;23.476;2024-03-02T04:26:39;6.75;83.66
67942;SHT31;54731;42.600;23.476;2024-03-02T04:29:04;6.71;83.65
67942;SHT31;54731;42.600;23.476;2024-03-02T04:31:29;6.72;83.43
67942;SHT31;54731;42.600;23.476;2024-03-02T04:33:55;6.75;83.30
67942;SHT31;54731;42.600;23.476;2024-03-02T04:36:20;6.73;83.09
67942;SHT31;54731;42.600;23.476;2024-03-02T04:38:45;6.71;83.23
67942;SHT31;54731;42.600;23.476;2024-03-02T04:41:10;6.71;83.32
67942;SHT31;54731;42.600;23.476;2024-03-02T04:43:36;6.76;83.29
67942;SHT31;54731;42.600;23.476;2024-03-02T04:46:01;6.78;82.74
67942;SHT31;54731;42.600;23.476;2024-03-02T04:48:27;6.75;82.97
67942;SHT31;54731;42.600;23.476;2024-03-02T04:50:52;6.78;83.04
67942;SHT31;54731;42.600;23.476;2024-03-02T04:53:17;6.81;83.06
67942;SHT31;54731;42.600;23.476;2024-03-02T04:55:43;6.82;83.09
67942;SHT31;54731;42.600;23.476;2024-03-02T04:58:08;6.81;83.00
67942;SHT31;54731;42.600;23.476;2024-03-02T05:00:34;6.79;83.04
67942;SHT31;54731;42.600;23.476;2024-03-02T05:02:59;6.86;82.94
67942;SHT31;54731;42.600;23.476;2024-03-02T05:05:25;6.83;83.00
67942;SHT31;54731;42.600;23.476;2024-03-02T05:07:50;6.85;83.07
67942;SHT31;54731;42.600;23.476;2024-03-02T05:10:16;6.85;83.08
67942;SHT31;54731;42.600;23.476;2024-03-02T05:12:41;6.86;83.02
67942;SHT31;54731;42.600;23.476;2024-03-02T05:15:07;6.86;83.04
67942;SHT31;54731;42.600;23.476;2024-03-02T05:17:32;6.88;83.01
67942;SHT31;54731;42.600;23.476;2024-03-02T05:19:57;6.89;83.12
67942;SHT31;54731;42.600;23.476;2024-03-02T05:22:23;6.88;83.27
67942;SHT31;54731;42.600;23.476;2024-03-02T05:24:48;6.89;83.44
67942;SHT31;54731;42.600;23.476;2024-03-02T05:27:13;6.85;83.60
67942;SHT31;54731;42.600;23.476;2024-03-02T05:29:39;6.85;83.50
67942;SHT31;54731;42.600;23.476;2024-03-02T05:32:04;6.85;83.50
67942;SHT31;54731;42.600;23.476;2024-03-02T05:34:29;6.85;83.52
67942;SHT31;54731;42.600;23.476;2024-03-02T05:36:54;6.81;83.74
67942;SHT31;54731;42.600;23.476;2024-03-02T05:39:20;6.72;83.95
67942;SHT31;54731;42.600;23.476;2024-03-02T05:41:45;6.58;84.35
67942;SHT31;54731;42.600;23.476;2024-03-02T05:44:10;6.42;84.87
67942;SHT31;54731;42.600;23.476;2024-03-02T05:46:36;6.41;85.03
67942;SHT31;54731;42.600;23.476;2024-03-02T05:49:01;6.44;84.98
67942;SHT31;54731;42.600;23.476;2024-03-02T05:51:26;6.44;85.00
67942;SHT31;54731;42.600;23.476;2024-03-02T05:53:52;6.55;84.94
67942;SHT31;54731;42.600;23.476;2024-03-02T05:56:17;6.62;84.69
67942;SHT31;54731;42.600;23.476;2024-03-02T05:58:42;6.68;84.65
67942;SHT31;54731;42.600;23.476;2024-03-02T06:01:07;6.75;84.38
67942;SHT31;54731;42.600;23.476;2024-03-02T06:03:33;6.65;84.25
67942;SHT31;54731;42.600;23.476;2024-03-02T06:05:58;6.52;83.80
67942;SHT31;54731;42.600;23.476;2024-03-02T06:08:23;6.49;84.31
67942;SHT31;54731;42.600;23.476;2024-03-02T06:10:49;6.46;84.20
67942;SHT31;54731;42.600;23.476;2024-03-02T06:13:14;6.48;84.45
67942;SHT31;54731;42.600;23.476;2024-03-02T06:15:39;6.53;84.41
67942;SHT31;54731;42.600;23.476;2024-03-02T06:18:05;6.56;84.18
67942;SHT31;54731;42.600;23.476;2024-03-02T06:20:30;6.64;84.03
67942;SHT31;54731;42.600;23.476;2024-03-02T06:22:55;6.82;84.15
67942;SHT31;54731;42.600;23.476;2024-03-02T06:25:21;6.78;83.80
67942;SHT31;54731;42.600;23.476;2024-03-02T06:27:46;6.71;84.05
67942;SHT31;54731;42.600;23.476;2024-03-02T06:30:12;6.75;83.88
67942;SHT31;54731;42.600;23.476;2024-03-02T06:32:37;6.76;83.84
67942;SHT31;54731;42.600;23.476;2024-03-02T06:35:03;6.79;83.92
67942;SHT31;54731;42.600;23.476;2024-03-02T06:37:28;6.79;83.91
67942;SHT31;54731;42.600;23.476;2024-03-02T06:39:53;6.86;83.86
67942;SHT31;54731;42.600;23.476;2024-03-02T06:42:19;6.93;83.85
67942;SHT31;54731;42.600;23.476;2024-03-02T06:44:44;6.93;83.66
67942;SHT31;54731;42.600;23.476;2024-03-02T06:47:09;6.88;83.48
67942;SHT31;54731;42.600;23.476;2024-03-02T06:49:35;6.86;83.62
67942;SHT31;54731;42.600;23.476;2024-03-02T06:52:00;6.91;83.64
67942;SHT31;54731;42.600;23.476;2024-03-02T06:54:25;6.97;83.79
67942;SHT31;54731;42.600;23.476;2024-03-02T06:56:50;7.02;83.75
67942;SHT31;54731;42.600;23.476;2024-03-02T06:59:16;7.02;84.03
67942;SHT31;54731;42.600;23.476;2024-03-02T07:01:41;6.83;83.99
67942;SHT31;54731;42.600;23.476;2024-03-02T07:04:06;6.79;83.89
67942;SHT31;54731;42.600;23.476;2024-03-02T07:06:32;6.72;84.52
67942;SHT31;54731;42.600;23.476;2024-03-02T07:08:57;6.75;84.66
67942;SHT31;54731;42.600;23.476;2024-03-02T07:11:22;6.78;85.09
67942;SHT31;54731;42.600;23.476;2024-03-02T07:13:47;6.86;84.97
67942;SHT31;54731;42.600;23.476;2024-03-02T07:16:13;6.96;84.73
67942;SHT31;54731;42.600;23.476;2024-03-02T07:18:38;7.00;84.41
67942;SHT31;54731;42.600;23.476;2024-03-02T07:21:03;7.10;84.09
67942;SHT31;54731;42.600;23.476;2024-03-02T07:23:29;7.12;83.71
67942;SHT31;54731;42.600;23.476;2024-03-02T07:25:54;7.10;83.62
67942;SHT31;54731;42.600;23.476;2024-03-02T07:28:20;7.13;83.69
67942;SHT31;54731;42.600;23.476;2024-03-02T07:30:45;7.24;84.12
67942;SHT31;54731;42.600;23.476;2024-03-02T07:33:10;7.38;84.09
67942;SHT31;54731;42.600;23.476;2024-03-02T07:35:35;7.34;82.99
67942;SHT31;54731;42.600;23.476;2024-03-02T07:38:01;7.33;82.49
67942;SHT31;54731;42.600;23.476;2024-03-02T07:40:26;7.26;82.43
67942;SHT31;54731;42.600;23.476;2024-03-02T07:42:51;7.19;82.31
67942;SHT31;54731;42.600;23.476;2024-03-02T07:45:17;7.23;82.28
67942;SHT31;54731;42.600;23.476;2024-03-02T07:47:42;7.22;82.31
67942;SHT31;54731;42.600;23.476;2024-03-02T07:50:08;7.22;82.47
67942;SHT31;54731;42.600;23.476;2024-03-02T07:52:33;7.16;82.74
67942;SHT31;54731;42.600;23.476;2024-03-02T07:54:58;7.17;82.94
67942;SHT31;54731;42.600;23.476;2024-03-02T07:57:24;7.12;83.13
67942;SHT31;54731;42.600;23.476;2024-03-02T07:59:50;7.22;82.95
67942;SHT31;54731;42.600;23.476;2024-03-02T08:02:15;7.22;82.58
67942;SHT31;54731;42.600;23.476;2024-03-02T08:04:41;7.27;82.58
67942;SHT31;54731;42.600;23.476;2024-03-02T08:07:06;7.28;82.47
67942;SHT31;54731;42.600;23.476;2024-03-02T08:09:31;7.40;82.35
67942;SHT31;54731;42.600;23.476;2024-03-02T08:11:57;7.44;82.72
67942;SHT31;54731;42.600;23.476;2024-03-02T08:14:22;7.47;83.03
67942;SHT31;54731;42.600;23.476;2024-03-02T08:16:47;7.43;83.34
67942;SHT31;54731;42.600;23.476;2024-03-02T08:19:13;7.42;83.42
67942;SHT31;54731;42.600;23.476;2024-03-02T08:21:38;7.43;83.62
67942;SHT31;54731;42.600;23.476;2024-03-02T08:24:04;7.43;83.79
67942;SHT31;54731;42.600;23.476;2024-03-02T08:26:29;7.46;83.79
67942;SHT31;54731;42.600;23.476;2024-03-02T08:28:55;7.50;83.57
67942;SHT31;54731;42.600;23.476;2024-03-02T08:31:20;7.54;83.29
67942;SHT31;54731;42.600;23.476;2024-03-02T08:33:46;7.53;83.22
67942;SHT31;54731;42.600;23.476;2024-03-02T08:36:11;7.57;83.14
67942;SHT31;54731;42.600;23.476;2024-03-02T08:38:37;7.58;82.38
67942;SHT31;54731;42.600;23.476;2024-03-02T08:41:02;7.63;82.18
67942;SHT31;54731;42.600;23.476;2024-03-02T08:43:27;7.66;82.36
67942;SHT31;54731;42.600;23.476;2024-03-02T08:45:56;7.56;83.12
67942;SHT31;54731;42.600;23.476;2024-03-02T08:48:21;7.57;83.12
67942;SHT31;54731;42.600;23.476;2024-03-02T08:50:46;7.40;83.27
67942;SHT31;54731;42.600;23.476;2024-03-02T08:53:12;7.33;83.59
67942;SHT31;54731;42.600;23.476;2024-03-02T08:55:37;7.37;83.32
67942;SHT31;54731;42.600;23.476;2024-03-02T08:58:02;7.42;83.45
67942;SHT31;54731;42.600;23.476;2024-03-02T09:00:28;7.44;83.51
67942;SHT31;54731;42.600;23.476;2024-03-02T09:02:53;7.51;83.42
67942;SHT31;54731;42.600;23.476;2024-03-02T09:05:19;7.48;83.65
67942;SHT31;54731;42.600;23.476;2024-03-02T09:07:44;7.53;83.26
67942;SHT31;54731;42.600;23.476;2024-03-02T09:10:09;7.50;83.37
67942;SHT31;54731;42.600;23.476;2024-03-02T09:12:35;7.60;83.42
67942;SHT31;54731;42.600;23.476;2024-03-02T09:15:02;7.58;83.87
67942;SHT31;54731;42.600;23.476;2024-03-02T09:17:28;7.57;84.17
67942;SHT31;54731;42.600;23.476;2024-03-02T09:19:54;7.66;84.35
67942;SHT31;54731;42.600;23.476;2024-03-02T09:22:19;7.60;84.06
67942;SHT31;54731;42.600;23.476;2024-03-02T09:24:45;7.70;84.06
67942;SHT31;54731;42.600;23.476;2024-03-02T09:27:10;7.78;84.09
67942;SHT31;54731;42.600;23.476;2024-03-02T09:29:36;7.90;83.94
67942;SHT31;54731;42.600;23.476;2024-03-02T09:32:01;7.95;83.81
67942;SHT31;54731;42.600;23.476;2024-03-02T09:34:27;7.95;83.71
67942;SHT31;54731;42.600;23.476;2024-03-02T09:36:52;7.95;83.78
67942;SHT31;54731;42.600;23.476;2024-03-02T09:39:18;7.82;83.90
67942;SHT31;54731;42.600;23.476;2024-03-02T09:41:45;7.64;83.77
67942;SHT31;54731;42.600;23.476;2024-03-02T09:44:10;7.61;84.23
67942;SHT31;54731;42.600;23.476;2024-03-02T09:46:39;7.70;84.06
67942;SHT31;54731;42.600;23.476;2024-03-02T09:49:05;7.70;83.73
67942;SHT31;54731;42.600;23.476;2024-03-02T09:51:31;7.68;83.60
67942;SHT31;54731;42.600;23.476;2024-03-02T09:53:57;7.67;83.74
67942;SHT31;54731;42.600;23.476;2024-03-02T09:56:22;7.63;83.85
67942;SHT31;54731;42.600;23.476;2024-03-02T09:58:50;7.73;84.37
67942;SHT31;54731;42.600;23.476;2024-03-02T10:01:15;7.80;84.13
67942;SHT31;54731;42.600;23.476;2024-03-02T10:03:40;7.97;84.46
67942;SHT31;54731;42.600;23.476;2024-03-02T10:06:25;8.09;83.94
67942;SHT31;54731;42.600;23.476;2024-03-02T10:08:51;8.12;84.13
67942;SHT31;54731;42.600;23.476;2024-03-02T10:11:28;8.24;84.42
67942;SHT31;54731;42.600;23.476;2024-03-02T10:14:10;8.18;83.98
67942;SHT31;54731;42.600;23.476;2024-03-02T10:16:40;8.33;83.92
67942;SHT31;54731;42.600;23.476;2024-03-02T10:19:22;8.39;84.01
67942;SHT31;54731;42.600;23.476;2024-03-02T10:21:49;8.48;83.48
67942;SHT31;54731;42.600;23.476;2024-03-02T10:24:15;8.42;82.93
67942;SHT31;54731;42.600;23.476;2024-03-02T10:26:41;8.59;82.95
67942;SHT31;54731;42.600;23.476;2024-03-02T10:29:07;8.60;82.76
67942;SHT31;54731;42.600;23.476;2024-03-02T10:31:33;8.46;82.75
67942;SHT31;54731;42.600;23.476;2024-03-02T10:33:59;8.53;82.65
67942;SHT31;54731;42.600;23.476;2024-03-02T10:36:25;8.53;82.43
67942;SHT31;54731;42.600;23.476;2024-03-02T10:38:51;8.41;82.92
67942;SHT31;54731;42.600;23.476;2024-03-02T10:41:18;8.42;83.29
67942;SHT31;54731;42.600;23.476;2024-03-02T10:43:43;8.53;83.38
67942;SHT31;54731;42.600;23.476;2024-03-02T10:46:10;8.57;82.37
67942;SHT31;54731;42.600;23.476;2024-03-02T10:48:39;8.50;82.13
67942;SHT31;54731;42.600;23.476;2024-03-02T10:51:06;8.53;82.40
67942;SHT31;54731;42.600;23.476;2024-03-02T10:53:31;8.49;81.82
67942;SHT31;54731;42.600;23.476;2024-03-02T10:55:58;8.25;82.94
67942;SHT31;54731;42.600;23.476;2024-03-02T10:58:29;8.24;83.21
67942;SHT31;54731;42.600;23.476;2024-03-02T11:00:56;8.25;83.28
67942;SHT31;54731;42.600;23.476;2024-03-02T11:03:23;8.36;83.21
67942;SHT31;54731;42.600;23.476;2024-03-02T11:05:49;8.42;82.77
67942;SHT31;54731;42.600;23.476;2024-03-02T11:08:18;8.45;82.84
67942;SHT31;54731;42.600;23.476;2024-03-02T11:10:50;8.29;83.35
67942;SHT31;54731;42.600;23.476;2024-03-02T11:13:15;8.24;83.16
67942;SHT31;54731;42.600;23.476;2024-03-02T11:15:43;8.28;82.95
67942;SHT31;54731;42.600;23.476;2024-03-02T11:18:09;8.41;83.16
67942;SHT31;54731;42.600;23.476;2024-03-02T11:20:38;8.60;83.02
67942;SHT31;54731;42.600;23.476;2024-03-02T11:23:05;8.72;82.06
67942;SHT31;54731;42.600;23.476;2024-03-02T11:25:31;8.79;81.11
67942;SHT31;54731;42.600;23.476;2024-03-02T11:28:01;8.76;80.62
67942;SHT31;54731;42.600;23.476;2024-03-02T11:33:03;8.31;81.84
67942;SHT31;54731;42.600;23.476;2024-03-02T11:35:28;8.49;81.72
67942;SHT31;54731;42.600;23.476;2024-03-02T11:37:54;8.67;81.56
67942;SHT31;54731;42.600;23.476;2024-03-02T11:40:22;8.73;81.01
67942;SHT31;54731;42.600;23.476;2024-03-02T11:42:48;8.64;81.23
67942;SHT31;54731;42.600;23.476;2024-03-02T11:45:16;8.72;81.40
67942;SHT31;54731;42.600;23.476;2024-03-02T11:47:46;8.69;80.56
67942;SHT31;54731;42.600;23.476;2024-03-02T11:50:15;8.62;81.09
67942;SHT31;54731;42.600;23.476;2024-03-02T11:52:42;8.76;81.36
67942;SHT31;54731;42.600;23.476;2024-03-02T11:55:08;8.62;81.88
67942;SHT31;54731;42.600;23.476;2024-03-02T11:57:35;8.57;82.13
67942;SHT31;54731;42.600;23.476;2024-03-02T12:00:00;8.66;82.03
67942;SHT31;54731;42.600;23.476;2024-03-02T12:02:25;8.64;82.55
67942;SHT31;54731;42.600;23.476;2024-03-02T12:04:51;8.73;82.35
67942;SHT31;54731;42.600;23.476;2024-03-02T12:07:20;8.69;81.95
67942;SHT31;54731;42.600;23.476;2024-03-02T12:09:45;8.67;81.79
67942;SHT31;54731;42.600;23.476;2024-03-02T12:12:11;8.70;81.87
67942;SHT31;54731;42.600;23.476;2024-03-02T12:14:37;8.60;81.97
67942;SHT31;54731;42.600;23.476;2024-03-02T12:17:04;8.55;81.82
67942;SHT31;54731;42.600;23.476;2024-03-02T12:19:30;8.60;82.01
67942;SHT31;54731;42.600;23.476;2024-03-02T12:21:59;8.73;81.91
67942;SHT31;54731;42.600;23.476;2024-03-02T12:24:30;8.73;82.05
67942;SHT31;54731;42.600;23.476;2024-03-02T12:26:56;8.70;81.97
67942;SHT31;54731;42.600;23.476;2024-03-02T12:29:22;8.74;81.83
67942;SHT31;54731;42.600;23.476;2024-03-02T12:31:52;8.67;81.80
67942;SHT31;54731;42.600;23.476;2024-03-02T12:34:17;8.66;81.88
67942;SHT31;54731;42.600;23.476;2024-03-02T12:36:43;8.70;81.82
67942;SHT31;54731;42.600;23.476;2024-03-02T12:39:09;8.79;81.78
67942;SHT31;54731;42.600;23.476;2024-03-02T12:41:36;8.81;81.67
67942;SHT31;54731;42.600;23.476;2024-03-02T12:44:01;8.77;81.73
67942;SHT31;54731;42.600;23.476;2024-03-02T12:46:27;8.72;81.93
67942;SHT31;54731;42.600;23.476;2024-03-02T12:48:52;8.73;82.01
67942;SHT31;54731;42.600;23.476;2024-03-02T12:51:18;8.76;81.83
67942;SHT31;54731;42.600;23.476;2024-03-02T12:53:43;8.74;81.83
67942;SHT31;54731;42.600;23.476;2024-03-02T12:56:09;8.79;81.68
67942;SHT31;54731;42.600;23.476;2024-03-02T12:58:40;8.76;81.46
67942;SHT31;54731;42.600;23.476;2024-03-02T13:01:07;8.79;81.43
67942;SHT31;54731;42.600;23.476;2024-03-02T13:03:35;8.76;81.32
67942;SHT31;54731;42.600;23.476;2024-03-02T13:06:00;8.79;81.21
67942;SHT31;54731;42.600;23.476;2024-03-02T13:08:26;8.76;81.05
67942;SHT31;54731;42.600;23.476;2024-03-02T13:10:52;8.66;81.24
67942;SHT31;54731;42.600;23.476;2024-03-02T13:13:17;8.74;81.32
67942;SHT31;54731;42.600;23.476;2024-03-02T13:15:42;8.83;81.24
67942;SHT31;54731;42.600;23.476;2024-03-02T13:18:07;8.88;80.93
67942;SHT31;54731;42.600;23.476;2024-03-02T13:20:33;8.88;81.01
67942;SHT31;54731;42.600;23.476;2024-03-02T13:22:58;8.96;81.01
67942;SHT31;54731;42.600;23.476;2024-03-02T13:25:23;8.90;80.16
67942;SHT31;54731;42.600;23.476;2024-03-02T13:27:49;8.72;80.78
67942;SHT31;54731;42.600;23.476;2024-03-02T13:30:14;8.72;80.88
67942;SHT31;54731;42.600;23.476;2024-03-02T13:32:39;8.84;80.69
67942;SHT31;54731;42.600;23.476;2024-03-02T13:35:05;8.84;80.39
67942;SHT31;54731;42.600;23.476;2024-03-02T13:37:30;8.87;80.41
67942;SHT31;54731;42.600;23.476;2024-03-02T13:39:55;8.97;80.06
67942;SHT31;54731;42.600;23.476;2024-03-02T13:42:21;9.01;79.58
67942;SHT31;54731;42.600;23.476;2024-03-02T13:44:46;9.06;78.89
67942;SHT31;54731;42.600;23.476;2024-03-02T13:47:11;9.10;78.47
67942;SHT31;54731;42.600;23.476;2024-03-02T13:49:37;9.21;78.22
67942;SHT31;54731;42.600;23.476;2024-03-02T13:52:06;9.34;77.65
67942;SHT31;54731;42.600;23.476;2024-03-02T13:54:31;9.30;77.05
67942;SHT31;54731;42.600;23.476;2024-03-02T13:56:57;9.20;77.31
67942;SHT31;54731;42.600;23.476;2024-03-02T13:59:22;8.97;78.08
67942;SHT31;54731;42.600;23.476;2024-03-02T14:01:47;9.00;78.46
67942;SHT31;54731;42.600;23.476;2024-03-02T14:04:13;9.04;78.54
67942;SHT31;54731;42.600;23.476;2024-03-02T14:06:38;9.16;78.52
67942;SHT31;54731;42.600;23.476;2024-03-02T14:09:03;9.16;77.93
67942;SHT31;54731;42.600;23.476;2024-03-02T14:11:29;9.16;78.18
67942;SHT31;54731;42.600;23.476;2024-03-02T14:13:54;9.20;78.07
67942;SHT31;54731;42.600;23.476;2024-03-02T14:16:20;9.23;77.83
67942;SHT31;54731;42.600;23.476;2024-03-02T14:18:45;9.23;78.42
67942;SHT31;54731;42.600;23.476;2024-03-02T14:21:11;9.31;78.09
67942;SHT31;54731;42.600;23.476;2024-03-02T14:23:36;9.26;78.09
67942;SHT31;54731;42.600;23.476;2024-03-02T14:26:02;9.28;78.05
67942;SHT31;54731;42.600;23.476;2024-03-02T14:28:27;9.28;77.72
67942;SHT31;54731;42.600;23.476;2024-03-02T14:30:52;9.17;78.37
67942;SHT31;54731;42.600;23.476;2024-03-02T14:33:17;9.17;78.36
67942;SHT31;54731;42.600;23.476;2024-03-02T14:35:44;9.21;77.91
67942;SHT31;54731;42.600;23.476;2024-03-02T14:38:10;9.17;77.97
67942;SHT31;54731;42.600;23.476;2024-03-02T14:40:35;9.13;78.37
67942;SHT31;54731;42.600;23.476;2024-03-02T14:43:00;9.06;78.08
67942;SHT31;54731;42.600;23.476;2024-03-02T14:45:25;9.03;78.39
67942;SHT31;54731;42.600;23.476;2024-03-02T14:47:52;9.06;78.55
67942;SHT31;54731;42.600;23.476;2024-03-02T14:50:17;8.91;78.96
67942;SHT31;54731;42.600;23.476;2024-03-02T14:52:44;8.90;79.43
67942;SHT31;54731;42.600;23.476;2024-03-02T14:55:09;8.87;79.01
67942;SHT31;54731;42.600;23.476;2024-03-02T14:57:34;8.88;79.45
67942;SHT31;54731;42.600;23.476;2024-03-02T15:00:00;8.99;79.58
67942;SHT31;54731;42.600;23.476;2024-03-02T15:02:25;9.06;80.01
67942;SHT31;54731;42.600;23.476;2024-03-02T15:04:50;9.10;80.02
67942;SHT31;54731;42.600;23.476;2024-03-02T15:07:16;9.00;80.50
67942;SHT31;54731;42.600;23.476;2024-03-02T15:09:42;8.94;80.98
67942;SHT31;54731;42.600;23.476;2024-03-02T15:12:07;8.99;80.94
67942;SHT31;54731;42.600;23.476;2024-03-02T15:14:33;9.01;80.90
67942;SHT31;54731;42.600;23.476;2024-03-02T15:16:58;9.04;80.64
67942;SHT31;54731;42.600;23.476;2024-03-02T15:19:23;9.07;79.93
67942;SHT31;54731;42.600;23.476;2024-03-02T15:21:49;9.04;79.68
67942;SHT31;54731;42.600;23.476;2024-03-02T15:24:14;9.01;79.69
67942;SHT31;54731;42.600;23.476;2024-03-02T15:26:39;9.00;79.58